Time;durP1;ratioP1;P1;durP2;ratioP2;P2;SDS_P1;SDS_P2;PMS_P1;PMS_P2;Temp;Humidity;BMP_temperature;BMP_pressure;BME280_temperature;BME280_humidity;BME280_pressure;Samples;Min_cycle;Max_cycle;Signal;HPM_P1;HPM_P2
2022/05/27 00:02:37;;;;;;;1.48;0.70;;;;;;;17.99;56.05;97352.97;10485794;28;20036;-22
2022/05/27 00:07:37;;;;;;;1.03;0.67;;;;;;;18.01;55.85;97341.16;10449059;28;20037;-22
2022/05/27 00:12:38;;;;;;;1.05;0.80;;;;;;;18.09;55.40;97338.75;10478626;28;20299;-21
2022/05/27 00:17:39;;;;;;;2.42;1.27;;;;;;;18.14;55.43;97332.03;10490673;28;20529;-21
2022/05/27 00:22:40;;;;;;;2.67;0.77;;;;;;;18.08;55.63;97334.50;10451240;28;20095;-22
2022/05/27 00:27:40;;;;;;;0.88;0.50;;;;;;;18.04;55.56;97335.28;10448717;28;20116;-22
2022/05/27 00:32:41;;;;;;;1.27;0.70;;;;;;;17.98;55.57;97341.16;10448418;28;20093;-22
2022/05/27 00:37:41;;;;;;;2.38;0.63;;;;;;;17.98;55.72;97340.31;10449232;28;20053;-22
2022/05/27 00:42:43;;;;;;;1.43;0.80;;;;;;;17.98;55.90;97335.25;10478141;28;20090;-21
2022/05/27 00:47:47;;;;;;;3.75;0.80;;;;;;;17.95;55.69;97335.19;10492199;28;20384;-21
2022/05/27 00:52:48;;;;;;;0.75;0.55;;;;;;;17.93;55.76;97324.19;10459571;28;20025;-21
2022/05/27 00:58:07;;;;;;;3.75;1.52;;;;;;;17.93;55.79;97319.13;10463606;28;20029;-23
2022/05/27 01:03:12;;;;;;;2.65;0.90;;;;;;;17.98;55.81;97309.91;10477809;28;20509;-21
2022/05/27 01:08:17;;;;;;;1.02;0.60;;;;;;;18.08;55.37;97311.69;10454836;28;20420;-23
2022/05/27 01:13:42;;;;;;;3.38;0.80;;;;;;;18.02;55.50;97301.50;10454927;28;20033;-23
2022/05/27 01:24:47;;;;;;;1.00;0.65;;;;;;;17.94;55.81;97300.56;10454247;28;20036;-22
2022/05/27 01:30:00;;;;;;;0.88;0.60;;;;;;;17.92;55.43;97292.09;10454551;28;20113;-22
2022/05/27 01:35:27;;;;;;;1.88;0.57;;;;;;;17.93;55.60;97296.31;10453378;28;20558;-22
2022/05/27 01:41:06;;;;;;;0.93;0.60;;;;;;;17.91;55.56;97293.75;10454918;28;20116;-21
2022/05/27 01:46:16;;;;;;;1.67;0.90;;;;;;;17.92;55.60;97294.63;10453667;28;20117;-21
2022/05/27 01:51:30;;;;;;;1.02;0.55;;;;;;;17.92;55.40;97292.09;10454453;28;20041;-22
2022/05/27 01:56:38;;;;;;;1.40;0.60;;;;;;;17.93;55.39;97281.13;10452591;28;20407;-21
2022/05/27 02:01:44;;;;;;;1.52;0.63;;;;;;;18.06;55.18;97303.22;10452855;28;20047;-21
2022/05/27 02:06:53;;;;;;;0.68;0.68;;;;;;;17.99;55.23;97301.47;10452377;28;20461;-22
2022/05/27 02:11:58;;;;;;;0.82;0.70;;;;;;;17.91;55.28;97281.09;10453268;28;20045;-21
2022/05/27 02:17:13;;;;;;;0.73;0.50;;;;;;;17.89;55.54;97276.84;10452103;28;20037;-22
2022/05/27 02:22:22;;;;;;;1.50;0.50;;;;;;;17.91;55.42;97288.69;10482510;28;20417;-21
2022/05/27 02:27:41;;;;;;;1.00;0.57;;;;;;;17.92;55.47;97279.44;10465030;28;20483;-22
2022/05/27 02:35:07;;;;;;;0.80;0.50;;;;;;;17.97;55.00;97283.72;10451749;28;20399;-21
2022/05/27 02:38:10;;;;;;;0.60;0.40;;;;;;;17.97;55.19;97277.78;10451311;28;20120;-21
2022/05/27 02:43:17;;;;;;;2.10;1.02;;;;;;;17.88;55.25;97285.28;10450747;28;20111;-22
2022/05/27 02:48:40;;;;;;;0.85;0.60;;;;;;;17.88;55.59;97282.75;10451648;28;20036;-22
2022/05/27 02:54:10;;;;;;;1.08;0.70;;;;;;;18.02;55.01;97260.94;10452424;28;20045;-21
2022/05/27 02:59:15;;;;;;;1.30;0.70;;;;;;;18.05;54.89;97260.97;10471641;28;20135;-21
2022/05/27 03:04:18;;;;;;;1.20;0.98;;;;;;;18.02;55.11;97266.03;10489178;28;20548;-21
2022/05/27 03:09:27;;;;;;;1.08;0.80;;;;;;;17.94;54.96;97263.41;10450655;28;20560;-25
2022/05/27 03:14:51;;;;;;;2.63;0.85;;;;;;;17.93;54.91;97260.88;10450307;28;20404;-23
2022/05/27 03:20:18;;;;;;;2.15;0.93;;;;;;;17.90;55.33;97273.50;10455297;28;20240;-22
2022/05/27 03:25:18;;;;;;;1.13;0.63;;;;;;;17.84;55.47;97265.84;10458988;28;20498;-21
2022/05/27 03:30:32;;;;;;;1.17;1.03;;;;;;;17.79;55.58;97272.50;10491321;28;20050;-22
2022/05/27 03:35:57;;;;;;;0.88;0.70;;;;;;;17.78;55.36;97263.22;10477011;28;20044;-23
2022/05/27 03:41:32;;;;;;;1.38;0.70;;;;;;;17.83;55.32;97271.72;10452081;28;20108;-21
2022/05/27 03:46:38;;;;;;;1.27;0.80;;;;;;;17.96;55.04;97276.94;10452739;28;20044;-23
2022/05/27 03:51:52;;;;;;;1.48;0.75;;;;;;;18.03;54.72;97272.78;10490246;28;20037;-22
2022/05/27 03:56:52;;;;;;;1.63;0.60;;;;;;;17.99;54.75;97266.00;10468798;28;20043;-23
2022/05/27 04:01:55;;;;;;;0.73;0.57;;;;;;;17.94;54.82;97262.56;10490819;28;20044;-23
2022/05/27 04:06:56;;;;;;;1.02;0.80;;;;;;;17.89;54.98;97254.03;10488961;28;20106;-23
2022/05/27 04:11:57;;;;;;;0.80;0.60;;;;;;;17.90;54.85;97265.91;10466147;28;20033;-21
2022/05/27 04:22:17;;;;;;;0.43;0.43;;;;;;;17.91;54.97;97277.75;10450195;28;20358;-22
2022/05/27 04:27:19;;;;;;;0.87;0.60;;;;;;;17.87;55.05;97291.19;10482647;28;20127;-23
2022/05/27 04:32:25;;;;;;;0.73;0.55;;;;;;;17.84;55.33;97296.22;10496489;28;20289;-22
2022/05/27 04:37:25;;;;;;;1.20;0.80;;;;;;;17.85;55.35;97300.47;10456362;28;20033;-21
2022/05/27 04:42:26;;;;;;;0.73;0.65;;;;;;;17.95;54.98;97290.44;10456307;28;20040;-21
2022/05/27 04:47:26;;;;;;;1.02;0.80;;;;;;;18.05;55.01;97297.31;10455639;28;20063;-23
2022/05/27 04:52:29;;;;;;;2.45;1.05;;;;;;;18.02;54.92;97301.50;10455243;28;20090;-21
2022/05/27 04:57:33;;;;;;;3.15;0.85;;;;;;;17.96;54.99;97294.69;10462341;28;20467;-21
2022/05/27 05:02:34;;;;;;;1.77;1.30;;;;;;;17.89;55.33;97302.19;10493000;28;20033;-21
2022/05/27 05:07:35;;;;;;;1.45;0.80;;;;;;;17.88;55.50;97301.34;10469876;28;20033;-22
2022/05/27 05:12:36;;;;;;;0.55;0.55;;;;;;;17.90;55.20;97307.28;10466147;28;20518;-22
2022/05/27 05:17:36;;;;;;;1.95;0.52;;;;;;;18.02;54.91;97324.28;10458216;28;20021;-21
2022/05/27 05:22:37;;;;;;;0.77;0.53;;;;;;;17.98;55.02;97315.81;10470564;28;20036;-21
2022/05/27 05:27:39;;;;;;;0.77;0.60;;;;;;;18.02;55.13;97316.69;10483477;28;20384;-22
2022/05/27 05:32:40;;;;;;;2.35;0.82;;;;;;;18.03;55.21;97304.06;10490708;28;20040;-21
2022/05/27 05:37:41;;;;;;;0.70;0.60;;;;;;;18.13;55.24;97299.91;10484124;28;20029;-21
2022/05/27 05:42:42;;;;;;;18.90;3.63;;;;;;;18.15;55.43;97295.75;10476516;28;20032;-24
2022/05/27 05:47:43;;;;;;;27.30;2.70;;;;;;;18.20;55.51;97286.47;10492452;28;20060;-23
2022/05/27 05:52:45;;;;;;;7.05;1.05;;;;;;;18.15;55.46;97291.50;10483651;28;20033;-21
2022/05/27 05:57:48;;;;;;;2.70;1.08;;;;;;;18.02;55.60;97281.22;10485144;28;20403;-21
2022/05/27 06:02:48;;;;;;;1.30;0.65;;;;;;;18.02;55.70;97294.75;10492753;28;20032;-21
2022/05/27 06:07:50;;;;;;;1.52;0.60;;;;;;;18.02;56.13;97306.56;10452308;28;20036;-21
2022/05/27 06:12:51;;;;;;;1.67;0.77;;;;;;;18.04;56.25;97299.81;10472025;28;20032;-21
2022/05/27 06:17:51;;;;;;;2.10;0.80;;;;;;;18.01;56.37;97297.25;10485582;28;20032;-22
2022/05/27 06:22:52;;;;;;;0.95;0.80;;;;;;;18.00;56.57;97293.88;10459482;28;20131;-21
2022/05/27 06:34:23;;;;;;;2.15;1.13;;;;;;;18.02;56.62;97296.44;10467216;28;20522;-23
2022/05/27 06:38:32;;;;;;;1.10;0.98;;;;;;;18.12;56.39;97303.28;10473996;28;20068;-21
2022/05/27 06:43:33;;;;;;;4.63;1.75;;;;;;;18.16;56.11;97300.78;10454268;28;20113;-23
2022/05/27 06:48:33;;;;;;;4.13;1.60;;;;;;;18.16;56.54;97299.97;10462197;28;20036;-23
2022/05/27 06:53:34;;;;;;;1.87;0.93;;;;;;;18.05;56.75;97286.31;10491782;28;20078;-23
2022/05/27 06:58:34;;;;;;;23.92;2.28;;;;;;;18.18;57.32;97303.34;10461383;28;20067;-24
2022/05/27 07:03:37;;;;;;;3.53;1.33;;;;;;;18.13;56.89;97310.06;10477910;28;20036;-26
2022/05/27 07:08:38;;;;;;;2.35;1.00;;;;;;;18.13;56.67;97299.91;10483606;28;20052;-23
2022/05/27 07:13:39;;;;;;;2.85;1.15;;;;;;;18.10;57.00;97299.91;10452494;28;20032;-23
2022/05/27 07:18:39;;;;;;;1.10;0.80;;;;;;;18.08;56.88;97302.41;10455879;28;20025;-25
2022/05/27 07:23:40;;;;;;;2.17;1.38;;;;;;;18.09;57.05;97315.94;10450275;28;20036;-25
2022/05/27 07:28:40;;;;;;;2.37;0.80;;;;;;;18.11;57.08;97304.13;10449900;28;20459;-24
2022/05/27 07:33:41;;;;;;;1.40;0.93;;;;;;;18.28;56.84;97305.16;10449329;28;20271;-24
2022/05/27 07:38:41;;;;;;;1.52;0.90;;;;;;;18.36;56.58;97298.50;10449942;28;20334;-24
2022/05/27 07:43:42;;;;;;;1.50;0.80;;;;;;;18.41;56.64;97297.72;10449845;28;20028;-24
2022/05/27 07:48:43;;;;;;;2.80;1.02;;;;;;;18.38;56.57;97302.75;10449743;28;20700;-23
2022/05/27 07:53:43;;;;;;;2.63;1.20;;;;;;;18.38;56.63;97301.91;10449823;28;20029;-23
2022/05/27 07:58:44;;;;;;;0.90;0.80;;;;;;;18.38;56.87;97302.75;10490447;28;20028;-23
2022/05/27 08:03:44;;;;;;;1.80;0.90;;;;;;;18.42;56.57;97298.56;10485398;28;20495;-23
2022/05/27 08:08:46;;;;;;;3.13;1.10;;;;;;;18.44;56.89;97304.50;10457623;28;20033;-23
2022/05/27 08:13:47;;;;;;;1.15;0.82;;;;;;;18.48;56.38;97298.59;10457399;28;20294;-25
2022/05/27 08:18:47;;;;;;;1.83;1.03;;;;;;;18.50;56.41;97296.97;10458215;28;20033;-23
2022/05/27 08:23:48;;;;;;;2.83;1.20;;;;;;;18.49;56.51;97290.19;10456762;28;20064;-23
2022/05/27 08:28:48;;;;;;;1.93;0.83;;;;;;;18.54;56.64;97294.47;10495951;28;20305;-23
2022/05/27 08:39:09;;;;;;;2.08;1.10;;;;;;;18.52;56.48;97287.66;10455168;28;20271;-24
2022/05/27 08:44:28;;;;;;;3.65;1.50;;;;;;;18.48;56.52;97296.06;10455103;28;20036;-23
2022/05/27 08:49:35;;;;;;;3.60;1.13;;;;;;;18.54;56.83;97289.38;10455128;28;20032;-23
2022/05/27 08:54:42;;;;;;;4.07;1.60;;;;;;;18.49;56.47;97296.09;10457497;28;20036;-23
2022/05/27 09:00:05;;;;;;;1.83;1.20;;;;;;;18.40;56.62;97290.09;10497582;28;20056;-23
2022/05/27 09:05:15;;;;;;;3.70;2.25;;;;;;;18.33;56.88;97288.34;10480100;28;20043;-23
2022/05/27 09:10:22;;;;;;;11.60;5.82;;;;;;;18.29;57.34;97276.44;10464568;28;20040;-26
2022/05/27 09:15:48;;;;;;;5.85;2.08;;;;;;;18.27;57.42;97284.03;10496432;28;20033;-23
2022/05/27 09:21:14;;;;;;;3.10;1.00;;;;;;;18.27;57.41;97283.16;10473324;28;20029;-23
2022/05/27 09:26:43;;;;;;;2.53;1.25;;;;;;;18.35;57.26;97281.59;10454507;28;20036;-25
2022/05/27 09:31:53;;;;;;;1.75;0.95;;;;;;;18.30;57.31;97268.00;10454667;28;20408;-24
2022/05/27 09:36:59;;;;;;;1.58;0.80;;;;;;;18.28;57.55;97277.25;10453764;28;20410;-24
2022/05/27 09:42:28;;;;;;;1.67;0.98;;;;;;;18.24;57.68;97278.09;10454408;28;20048;-25
2022/05/27 09:47:31;;;;;;;0.85;0.65;;;;;;;18.25;57.58;97277.25;10453748;28;20041;-23
2022/05/27 09:52:38;;;;;;;1.17;0.80;;;;;;;18.31;57.30;97275.66;10453230;28;20468;-24
2022/05/27 09:57:54;;;;;;;1.63;0.80;;;;;;;18.32;57.24;97281.56;10461361;28;20379;-25
2022/05/27 10:02:54;;;;;;;1.88;0.90;;;;;;;18.27;57.70;97278.09;10494704;28;20527;-25
2022/05/27 10:07:57;;;;;;;1.57;0.90;;;;;;;18.30;57.30;97273.94;10492885;28;20037;-23
2022/05/27 10:13:30;;;;;;;1.20;0.60;;;;;;;18.37;57.15;97264.72;10461220;28;20117;-24
2022/05/27 10:18:30;;;;;;;2.78;1.00;;;;;;;18.36;57.04;97268.09;10459367;28;20028;-24
2022/05/27 10:23:37;;;;;;;1.57;0.70;;;;;;;18.44;57.12;97261.41;10450950;28;20032;-24
2022/05/27 10:28:37;;;;;;;1.35;0.80;;;;;;;18.65;56.37;97256.47;10486925;28;20040;-23
2022/05/27 10:33:47;;;;;;;1.17;0.90;;;;;;;18.61;56.33;97257.31;10493725;28;20043;-22
2022/05/27 10:39:17;;;;;;;1.63;0.80;;;;;;;18.40;56.94;97254.63;10452634;28;20410;-24
2022/05/27 10:44:36;;;;;;;0.85;0.75;;;;;;;18.30;57.53;97258.75;10451333;28;20415;-23
2022/05/27 10:50:05;;;;;;;1.27;0.73;;;;;;;18.46;57.15;97249.56;10458939;28;20042;-23
2022/05/27 10:55:12;;;;;;;1.73;0.90;;;;;;;18.39;57.18;97247.81;10482849;28;20044;-25
2022/05/27 11:06:02;;;;;;;1.83;0.95;;;;;;;18.37;57.48;97229.22;10474690;28;20040;-23
2022/05/27 11:11:05;;;;;;;1.33;0.80;;;;;;;18.34;57.76;97224.13;10450164;28;20529;-23
2022/05/27 11:16:13;;;;;;;1.48;0.88;;;;;;;18.32;57.56;97228.34;10450280;28;20035;-22
2022/05/27 11:21:55;;;;;;;1.95;0.57;;;;;;;18.41;57.22;97218.28;10460504;28;20032;-23
2022/05/27 11:27:09;;;;;;;1.38;0.88;;;;;;;18.27;57.65;97207.13;10448345;28;20529;-23
2022/05/27 11:32:39;;;;;;;2.10;0.70;;;;;;;18.23;58.22;97213.00;10449727;28;20044;-23
2022/05/27 11:38:13;;;;;;;4.57;0.82;;;;;;;18.14;58.21;97205.31;10485133;28;20029;-24
2022/05/27 11:43:37;;;;;;;4.20;0.95;;;;;;;18.21;58.40;97207.06;10456669;28;20043;-25
2022/05/27 11:49:48;;;;;;;1.65;0.95;;;;;;;18.31;58.00;97206.34;10449635;28;20037;-25
2022/05/27 11:55:14;;;;;;;4.28;1.13;;;;;;;18.34;58.09;97198.78;10421484;28;20093;-24
2022/05/27 12:00:18;;;;;;;1.87;1.03;;;;;;;18.29;57.96;97196.22;10480532;28;20032;-23
2022/05/27 12:05:27;;;;;;;1.27;0.77;;;;;;;18.35;57.92;97190.34;10485415;28;20173;-25
2022/05/27 12:10:54;;;;;;;1.83;0.80;;;;;;;18.48;58.31;97192.97;10484162;28;20043;-23
2022/05/27 12:16:00;;;;;;;6.30;2.35;;;;;;;18.58;57.93;97188.81;10485455;28;20475;-23
2022/05/27 12:21:05;;;;;;;2.28;1.00;;;;;;;18.71;57.62;97183.84;10471140;28;20065;-24
2022/05/27 12:26:06;;;;;;;1.38;0.77;;;;;;;18.82;57.38;97173.78;10475595;28;20041;-23
2022/05/27 12:31:08;;;;;;;1.40;0.50;;;;;;;18.92;57.53;97186.50;10490571;28;20398;-23
2022/05/27 12:36:26;;;;;;;2.30;0.80;;;;;;;18.99;57.11;97188.22;10454284;28;20044;-25
2022/05/27 12:41:41;;;;;;;1.65;0.63;;;;;;;19.00;57.02;97182.31;10467434;28;20086;-23
2022/05/27 12:46:44;;;;;;;0.90;0.60;;;;;;;18.99;57.03;97178.09;10496827;28;20037;-25
2022/05/27 12:51:46;;;;;;;2.45;0.65;;;;;;;18.96;56.94;97173.00;10468460;28;20421;-23
2022/05/27 13:02:14;;;;;;;3.05;1.17;;;;;;;18.94;56.50;97148.47;10497187;28;20051;-23
2022/05/27 13:07:21;;;;;;;2.22;1.10;;;;;;;19.14;56.30;97165.47;10464996;28;20063;-24
2022/05/27 13:12:46;;;;;;;2.40;0.98;;;;;;;19.16;55.80;97160.41;10481062;28;20411;-23
2022/05/27 13:17:51;;;;;;;1.52;1.02;;;;;;;19.03;56.18;97156.09;10496321;28;20509;-24
2022/05/27 13:23:11;;;;;;;0.95;0.52;;;;;;;18.93;56.07;97150.13;10461634;28;20045;-23
2022/05/27 13:28:30;;;;;;;1.83;0.90;;;;;;;18.95;55.95;97158.63;10451751;28;20025;-23
2022/05/27 13:33:52;;;;;;;1.35;0.60;;;;;;;18.93;56.04;97146.75;10454258;28;20107;-24
2022/05/27 13:39:01;;;;;;;1.52;0.68;;;;;;;18.91;56.16;97148.44;10453438;28;20033;-22
2022/05/27 13:44:02;;;;;;;1.10;0.80;;;;;;;18.87;56.11;97141.66;10453185;28;20483;-24
2022/05/27 13:49:14;;;;;;;4.85;0.90;;;;;;;18.91;56.56;97154.34;10452527;28;20064;-23
2022/05/27 13:54:17;;;;;;;2.53;0.90;;;;;;;18.87;56.22;97147.59;10463651;28;20035;-22
2022/05/27 13:59:27;;;;;;;1.40;0.60;;;;;;;18.91;56.09;97154.34;10470540;28;20024;-26
2022/05/27 14:04:44;;;;;;;1.10;1.00;;;;;;;18.91;56.23;97156.06;10481951;28;20492;-23
2022/05/27 14:09:49;;;;;;;0.80;0.70;;;;;;;18.92;56.16;97150.97;10486802;28;20040;-23
2022/05/27 14:14:55;;;;;;;1.70;0.88;;;;;;;19.00;56.35;97151.03;10470320;28;20039;-24
2022/05/27 14:20:02;;;;;;;3.17;0.88;;;;;;;18.82;56.53;97148.41;10451231;28;20040;-22
2022/05/27 14:25:03;;;;;;;;;;;;;;;18.83;56.48;97145.84;10450377;28;20672;-23
2022/05/27 14:30:04;;;;;;;2.22;0.80;;;;;;;18.78;56.59;97149.22;10454239;28;19956;-25
2022/05/27 14:35:08;;;;;;;2.10;0.75;;;;;;;18.58;56.62;97117.81;10452774;28;20434;-23
2022/05/27 14:40:12;;;;;;;1.88;1.15;;;;;;;18.75;56.71;97141.59;10452064;28;20036;-23
2022/05/27 14:45:48;;;;;;;1.38;0.80;;;;;;;18.74;56.79;97152.59;10450837;28;20032;-25
2022/05/27 14:50:48;;;;;;;3.97;1.00;;;;;;;18.65;57.09;97149.97;10451716;28;20040;-24
2022/05/27 14:55:58;;;;;;;1.52;0.80;;;;;;;18.73;56.87;97150.84;10451238;28;20032;-24
2022/05/27 15:01:00;;;;;;;0.65;0.63;;;;;;;18.80;56.65;97147.53;10453028;28;20492;-23
2022/05/27 15:06:13;;;;;;;2.00;0.85;;;;;;;18.74;56.88;97150.06;10448648;28;20075;-24
2022/05/27 15:11:25;;;;;;;1.67;0.90;;;;;;;18.67;56.97;97148.31;10452662;28;20050;-24
2022/05/27 15:16:30;;;;;;;1.25;0.65;;;;;;;18.66;57.21;97151.69;10452055;28;20032;-24
2022/05/27 15:21:34;;;;;;;4.20;0.80;;;;;;;18.70;56.94;97153.38;10450924;28;20028;-22
2022/05/27 15:37:30;;;;;;;1.90;0.60;;;;;;;18.67;56.87;97148.31;10450105;28;20036;-23
2022/05/27 15:42:43;;;;;;;1.90;0.95;;;;;;;18.65;56.76;97145.75;10448400;28;20426;-22
2022/05/27 15:47:43;;;;;;;1.38;0.70;;;;;;;18.72;56.65;97146.63;10447925;28;20049;-24
2022/05/27 15:52:47;;;;;;;1.55;0.82;;;;;;;18.45;57.07;97116.03;10448615;28;20032;-25
2022/05/27 15:57:47;;;;;;;1.83;1.00;;;;;;;18.60;57.17;97144.03;10449126;28;20044;-24
2022/05/27 16:02:47;;;;;;;1.07;0.50;;;;;;;18.56;56.98;97153.31;10470830;28;20037;-24
2022/05/27 16:07:48;;;;;;;2.23;0.50;;;;;;;18.56;57.09;97139.75;10467602;28;20123;-24
2022/05/27 16:12:49;;;;;;;0.90;0.60;;;;;;;18.56;57.42;97134.69;10474759;28;20033;-23
2022/05/27 16:17:53;;;;;;;2.85;0.60;;;;;;;18.56;57.15;97137.22;10482663;28;20032;-25
2022/05/27 16:22:55;;;;;;;0.93;0.50;;;;;;;18.56;57.19;97139.75;10457747;28;20044;-23
2022/05/27 16:28:01;;;;;;;2.17;0.77;;;;;;;18.37;57.23;97110.06;10457633;28;20154;-24
2022/05/27 16:33:02;;;;;;;0.50;0.45;;;;;;;18.54;57.05;97136.38;10481441;28;20059;-24
2022/05/27 16:38:02;;;;;;;0.93;0.65;;;;;;;18.53;57.34;97145.69;10495738;28;20032;-24
2022/05/27 16:43:03;;;;;;;2.65;0.82;;;;;;;18.54;57.24;97144.00;10487910;28;20554;-23
2022/05/27 16:48:04;;;;;;;1.38;0.73;;;;;;;18.52;57.10;97140.59;10466235;28;20419;-26
2022/05/27 16:53:05;;;;;;;0.68;0.47;;;;;;;18.51;57.12;97141.44;10455419;28;20037;-23
2022/05/27 16:58:08;;;;;;;1.17;0.70;;;;;;;18.47;57.40;97142.25;10467424;28;20509;-23
2022/05/27 17:03:09;;;;;;;3.67;0.75;;;;;;;18.47;57.48;97137.16;10489402;28;20033;-22
2022/05/27 17:08:09;;;;;;;2.03;0.80;;;;;;;18.46;57.39;97148.16;10455143;28;20491;-23
2022/05/27 17:13:09;;;;;;;0.87;0.57;;;;;;;18.45;57.26;97142.25;10454729;28;20306;-25
2022/05/27 17:18:10;;;;;;;0.40;0.38;;;;;;;18.53;57.06;97155.84;10480018;28;20043;-25
2022/05/27 17:23:10;;;;;;;1.43;0.70;;;;;;;18.54;56.82;97154.13;10487852;28;20036;-23
2022/05/27 17:28:10;;;;;;;1.30;0.90;;;;;;;18.50;57.13;97149.91;10493806;28;20060;-23
2022/05/27 17:33:11;;;;;;;3.43;1.00;;;;;;;18.49;56.96;97151.56;10491569;28;20421;-24
2022/05/27 17:38:12;;;;;;;4.43;1.02;;;;;;;18.50;57.17;97152.44;10513221;28;20271;-23
2022/05/27 17:43:13;;;;;;;0.70;0.53;;;;;;;18.48;57.05;97146.47;10459947;28;20082;-23
2022/05/27 17:53:33;;;;;;;1.42;0.65;;;;;;;18.44;57.21;97154.91;10458915;28;20329;-23
2022/05/27 17:58:33;;;;;;;2.45;0.77;;;;;;;18.44;57.13;97159.97;10493153;28;20093;-24
2022/05/27 18:03:34;;;;;;;0.60;0.47;;;;;;;18.43;57.06;97163.38;10486218;28;20033;-24
2022/05/27 18:08:35;;;;;;;1.13;0.70;;;;;;;18.48;57.05;97164.22;10484249;28;20226;-23
2022/05/27 18:13:36;;;;;;;0.85;0.60;;;;;;;18.51;56.96;97161.72;10487853;28;20035;-25
2022/05/27 18:18:37;;;;;;;1.48;0.60;;;;;;;18.46;57.08;97154.09;10477046;28;20101;-23
2022/05/27 18:23:37;;;;;;;1.17;0.70;;;;;;;18.44;56.98;97154.91;10477491;28;20123;-24
2022/05/27 18:28:38;;;;;;;0.70;0.40;;;;;;;18.38;57.13;97147.25;10475220;28;20299;-24
2022/05/27 18:33:38;;;;;;;1.00;0.70;;;;;;;18.48;56.90;97151.53;10465831;28;20036;-24
2022/05/27 18:38:39;;;;;;;1.85;0.70;;;;;;;18.46;56.96;97153.22;10483264;28;20410;-24
2022/05/27 18:43:39;;;;;;;0.60;0.60;;;;;;;18.41;57.08;97150.66;10482423;28;20047;-25
2022/05/27 18:48:40;;;;;;;1.23;0.90;;;;;;;18.40;57.06;97158.28;10460829;28;20041;-23
2022/05/27 18:53:44;;;;;;;2.50;0.50;;;;;;;18.40;57.30;97160.81;10480895;28;20651;-24
2022/05/27 18:58:45;;;;;;;1.23;0.80;;;;;;;18.46;57.07;97165.91;10472663;28;20081;-23
2022/05/27 19:03:45;;;;;;;3.50;0.70;;;;;;;18.46;56.75;97158.28;10481501;28;20036;-24
2022/05/27 19:08:46;;;;;;;3.67;1.10;;;;;;;18.44;56.90;97165.06;10474239;28;20593;-24
2022/05/27 19:13:46;;;;;;;1.83;1.23;;;;;;;18.36;56.98;97146.41;10447829;28;20040;-25
2022/05/27 19:24:05;;;;;;;3.40;1.38;;;;;;;18.38;57.19;97157.41;10473732;28;20352;-24
2022/05/27 19:29:06;;;;;;;0.98;0.88;;;;;;;18.38;57.32;97157.41;10451058;28;20045;-24
2022/05/27 19:34:07;;;;;;;1.30;0.97;;;;;;;18.33;57.37;97167.50;10450209;28;20055;-25
2022/05/27 19:39:07;;;;;;;1.67;1.00;;;;;;;18.30;57.44;97177.63;10490147;28;20035;-24
2022/05/27 19:44:08;;;;;;;1.77;1.23;;;;;;;18.26;57.83;97169.97;10470633;28;20043;-23
2022/05/27 19:49:09;;;;;;;1.30;0.90;;;;;;;18.34;57.47;97173.44;10473449;28;20334;-23
2022/05/27 19:54:11;;;;;;;1.27;0.88;;;;;;;18.33;57.53;97176.81;10472686;28;20119;-25
2022/05/27 20:04:54;;;;;;;1.17;1.08;;;;;;;18.29;57.63;97181.00;10438240;28;20044;-23
2022/05/27 20:09:56;;;;;;;1.23;0.77;;;;;;;18.25;57.87;97193.59;10463898;28;20082;-25
2022/05/27 20:15:02;;;;;;;1.02;0.80;;;;;;;18.21;57.93;97189.34;10452319;28;20123;-24
2022/05/27 20:20:03;;;;;;;0.82;0.70;;;;;;;18.20;58.09;97201.19;10455939;28;20040;-23
2022/05/27 20:25:04;;;;;;;2.53;0.70;;;;;;;18.18;58.21;97204.53;10451909;28;20114;-24
2022/05/27 20:30:05;;;;;;;0.90;0.77;;;;;;;18.19;58.09;97208.75;10452907;28;20120;-23
2022/05/27 20:35:07;;;;;;;1.05;0.95;;;;;;;18.13;58.41;97208.69;10451690;28;20434;-25
2022/05/27 20:40:10;;;;;;;1.08;0.90;;;;;;;18.23;57.99;97203.72;10457635;28;20032;-24
2022/05/27 20:45:10;;;;;;;1.88;1.00;;;;;;;18.29;57.76;97210.53;10471006;28;20033;-24
2022/05/27 20:50:10;;;;;;;0.60;0.50;;;;;;;18.25;57.91;97202.03;10470895;28;20033;-23
2022/05/27 20:55:11;;;;;;;3.50;1.03;;;;;;;18.20;57.99;97206.25;10452070;28;20291;-24
2022/05/27 21:00:12;;;;;;;2.47;0.90;;;;;;;18.19;58.13;97199.47;10466063;28;20052;-23
2022/05/27 21:05:12;;;;;;;1.27;0.90;;;;;;;18.16;58.11;97191.81;10453180;28;20041;-24
2022/05/27 21:10:12;;;;;;;2.83;0.80;;;;;;;18.15;57.99;97197.72;10454581;28;20551;-24
2022/05/27 21:15:13;;;;;;;3.20;1.00;;;;;;;18.14;58.10;97210.38;10470251;28;20036;-23
2022/05/27 21:20:14;;;;;;;1.27;1.00;;;;;;;18.13;58.08;97204.47;10450450;28;20048;-25
2022/05/27 21:25:14;;;;;;;1.30;0.82;;;;;;;18.15;57.93;97209.56;10449954;28;20126;-24
2022/05/27 21:30:14;;;;;;;1.93;0.83;;;;;;;18.16;57.99;97208.75;10451055;28;20040;-25
2022/05/27 21:35:17;;;;;;;1.27;0.80;;;;;;;18.21;57.78;97202.00;10460269;28;20430;-23
2022/05/27 21:40:17;;;;;;;1.05;0.73;;;;;;;18.25;57.45;97206.28;10449969;28;20287;-24
2022/05/27 21:45:18;;;;;;;2.05;0.60;;;;;;;18.19;57.62;97204.53;10452781;28;20400;-23
2022/05/27 21:50:20;;;;;;;1.95;0.93;;;;;;;18.13;57.75;97199.41;10473840;28;20452;-23
2022/05/27 21:55:21;;;;;;;1.58;0.80;;;;;;;18.10;57.65;97189.25;10483782;28;20025;-24
2022/05/27 22:00:23;;;;;;;1.73;0.77;;;;;;;18.10;57.70;97188.41;10453143;28;20037;-25
2022/05/27 22:05:24;;;;;;;0.98;0.80;;;;;;;17.99;57.73;97187.47;10450893;28;20040;-24
2022/05/27 22:15:48;;;;;;;2.05;1.10;;;;;;;18.05;57.74;97201.03;10451611;28;20288;-24
2022/05/27 22:20:49;;;;;;;1.20;0.90;;;;;;;18.04;57.69;97193.41;10467211;28;20052;-24
2022/05/27 22:25:49;;;;;;;1.40;1.00;;;;;;;18.08;57.59;97200.22;10452461;28;20076;-24
2022/05/27 22:30:50;;;;;;;1.67;1.08;;;;;;;18.17;57.10;97190.16;10452362;28;20033;-23
2022/05/27 22:35:52;;;;;;;1.53;1.00;;;;;;;18.15;57.15;97187.59;10451798;28;20518;-25
2022/05/27 22:40:53;;;;;;;1.73;1.00;;;;;;;18.08;57.58;97185.00;10451799;28;20071;-23
2022/05/27 22:45:53;;;;;;;2.00;1.40;;;;;;;18.04;57.26;97183.28;10451816;28;20562;-22
2022/05/27 22:50:55;;;;;;;1.83;1.20;;;;;;;18.02;57.40;97179.88;10458366;28;20060;-23
2022/05/27 22:55:55;;;;;;;2.20;1.20;;;;;;;18.04;57.26;97173.13;10451439;28;20036;-23
2022/05/27 23:00:55;;;;;;;3.30;1.33;;;;;;;18.01;57.20;97163.81;10450581;28;20507;-23
2022/05/27 23:05:56;;;;;;;2.60;1.10;;;;;;;17.99;57.15;97159.59;10450715;28;20028;-22
2022/05/27 23:11:00;;;;;;;1.05;0.90;;;;;;;18.00;57.29;97161.28;10450726;28;20501;-22
2022/05/27 23:21:20;;;;;;;2.17;1.40;;;;;;;18.04;57.09;97132.59;10449652;28;20459;-22
2022/05/27 23:26:21;;;;;;;2.23;1.10;;;;;;;18.11;56.95;97134.34;10449533;28;20116;-23
2022/05/27 23:31:21;;;;;;;1.80;1.20;;;;;;;18.08;56.93;97139.41;10450882;28;20040;-23
2022/05/27 23:36:22;;;;;;;1.20;0.83;;;;;;;18.01;56.72;97135.13;10449606;28;20033;-23
2022/05/27 23:41:22;;;;;;;1.33;1.03;;;;;;;18.02;57.01;97129.22;10450439;28;20046;-22
2022/05/27 23:46:24;;;;;;;1.98;1.20;;;;;;;17.97;56.90;97123.25;10448903;28;20407;-23
2022/05/27 23:51:26;;;;;;;1.65;1.20;;;;;;;17.94;56.95;97118.16;10482179;28;20049;-23
2022/05/27 23:56:27;;;;;;;1.35;1.00;;;;;;;17.93;57.00;97119.00;10471015;28;20037;-22
